Aérodrome :
LOGIN :

S'inscrire | Disclaimer

   EN    FR    IT 

 










Légende :    VFR   VFR Marginal   IFR   IFR Intensif   IFR Très Intensif
Visi : 
Plafond : 
>= 8 km
>= 3000ft
5 à 8 km
1000 à 3000 ft
1500m à 5 km
500 à 1000 ft
800 à 1500m
200 à 500 ft
< 800m
< 200 ft
Symboles :   Orages  Brouillard  Fortes neiges  Fortes précipitations  Vent > 20 kt
SIGMETs :   Divers  Orages  Givrage  Turbulence  Onde Orograph.  Cendres Volcan.






- Altitude de l'aérodrome : 935 ft


EBFS - Florennes

DERNIER METAR :
  • 210555Z VRB01KT 5000 BR SKC M03/M03 Q1041 WHT WHT TEMPO YLO

METARs EXPIRÉS :
  • 210545Z AUTO VRB01KT 4800 BKN210/// M03/M03 Q1041 GRN
  • 210525Z AUTO VRB01KT 5000 BKN210/// M03/M03 Q1041 WHT
  • 210510Z AUTO VRB02KT 4900 BKN210/// M03/M03 Q1042 GRN
  • 210455Z AUTO VRB01KT 6000 OVC210/// M03/M03 Q1041 WHT
  • 210443Z AUTO VRB01KT 5000 OVC210/// M03/M03 Q1042 WHT
  • 210425Z AUTO VRB01KT 4500 BR BKN210/// M03/M03 Q1042 GRN
  • 210417Z AUTO VRB01KT 3600 BR OVC210/// M03/M03 Q1042 YLO
  • 210405Z AUTO 02003KT 1500 BR OVC210/// M03/M04 Q1042 AMB
  • 210353Z AUTO VRB01KT 7000 OVC210/// M02/M02 Q1042 WHT
  • 210325Z AUTO VRB01KT 9999 OVC220/// M02/M02 Q1042 BLU

TAF COR TAF EBFS
Valide du 20 à 19h jusqu'au 21 à 07h UTC


201605Z 2019/2107 06005KT 4000 BR SCT004 BKN005 BKN120
TEMPO 2019/2022 VRB03KT 1500 BR MIFG SCT002 BKN004
BECMG 2021/2023 09005KT 3000 BR SCT002 BKN004
PROB40
TEMPO 2021/2107 VRB03KT 0500 FZFG SCT001



MET'MAP, la Météo Aéronautique d'un coup d'oeil ! - Copyright ORBIFLY Décembre 2007 - Disclaimer

ORBIFLY MET'MAP TEAM :

Programmation & Développement : Alexandra Zaïnal
Sur une idée originale de : Baudouin d'Aumeries
Assistance à la programmation : Marc-Olivier Méhu
Soutien technique & logistique : Manuel Goepfert

Contact : metmap@orbifly.com




SOURCES & CREDITS :

   NOAA